Costa, West Virginia
Current Conditions -  °F | °C
As of 2:54 PM on Thursday 27 Nov 2014 (Local Time) from KCRW Reporting Station
Light Snow Light Snow  
Wind Chill: 26°   Ceiling: 2600
Heat Index: 34°   Visibility: 9mi
Dew Point: 23°   Wind: 10mph
Humidity: 64%   Direction: 280°W
Pressure: 30.2"   Gusts: 18mph
Location:  38.16°N, 81.72°W
Report Text: KCRW 271954Z 28009G16KT 9SM -SN OVC026 01/M05 A3020 RMK AO2 SNB11 SLP233 INTMT FLURRIES P0000 T00111050
Loading
Personal Weather Stations






























Interactive Weather Map New forecast layout! Learn more

10-Day Weather Forecast

Advertisements
Track Severe Weather on mobile